sensor_id;sensor_type;location;lat;lon;timestamp;P1;P2;P0
76049;PMS7003;64967;50.234;19.224;2023-02-28T00:01:19;11.00;5.33;4.00
76049;PMS7003;64967;50.234;19.224;2023-02-28T00:03:46;6.00;5.33;4.67
76049;PMS7003;64967;50.234;19.224;2023-02-28T00:06:13;5.67;4.67;3.33
76049;PMS7003;64967;50.234;19.224;2023-02-28T00:08:40;5.00;4.33;4.00
76049;PMS7003;64967;50.234;19.224;2023-02-28T00:11:09;6.33;4.00;2.67
76049;PMS7003;64967;50.234;19.224;2023-02-28T00:13:41;10.25;8.00;5.00
76049;PMS7003;64967;50.234;19.224;2023-02-28T00:16:14;10.67;7.33;4.67
76049;PMS7003;64967;50.234;19.224;2023-02-28T00:18:46;8.00;6.00;5.00
76049;PMS7003;64967;50.234;19.224;2023-02-28T00:21:14;8.00;7.33;5.00
76049;PMS7003;64967;50.234;19.224;2023-02-28T00:23:43;5.33;4.00;2.00
76049;PMS7003;64967;50.234;19.224;2023-02-28T00:26:10;1.00;1.00;1.00
76049;PMS7003;64967;50.234;19.224;2023-02-28T00:28:37;1.67;1.33;1.33
76049;PMS7003;64967;50.234;19.224;2023-02-28T00:31:04;5.00;4.00;4.00
76049;PMS7003;64967;50.234;19.224;2023-02-28T00:33:31;4.00;4.00;2.00
76049;PMS7003;64967;50.234;19.224;2023-02-28T00:36:02;4.00;2.67;2.00
76049;PMS7003;64967;50.234;19.224;2023-02-28T00:38:30;4.00;2.00;1.67
76049;PMS7003;64967;50.234;19.224;2023-02-28T00:40:58;1.00;1.00;0.75
76049;PMS7003;64967;50.234;19.224;2023-02-28T00:43:31;7.00;5.00;4.00
76049;PMS7003;64967;50.234;19.224;2023-02-28T00:46:03;9.67;5.67;4.33
76049;PMS7003;64967;50.234;19.224;2023-02-28T00:48:30;5.00;4.33;3.33
76049;PMS7003;64967;50.234;19.224;2023-02-28T00:50:58;12.33;4.00;2.67
76049;PMS7003;64967;50.234;19.224;2023-02-28T00:53:25;4.00;2.00;2.00
76049;PMS7003;64967;50.234;19.224;2023-02-28T00:55:52;2.00;2.00;1.33
76049;PMS7003;64967;50.234;19.224;2023-02-28T00:58:20;1.00;1.00;1.00
76049;PMS7003;64967;50.234;19.224;2023-02-28T01:00:47;3.33;1.00;1.00
76049;PMS7003;64967;50.234;19.224;2023-02-28T01:03:16;1.00;1.00;0.00
76049;PMS7003;64967;50.234;19.224;2023-02-28T01:05:45;4.00;1.00;0.00
76049;PMS7003;64967;50.234;19.224;2023-02-28T01:08:13;4.00;3.33;1.00
76049;PMS7003;64967;50.234;19.224;2023-02-28T01:10:41;2.67;1.00;1.00
76049;PMS7003;64967;50.234;19.224;2023-02-28T01:13:08;2.00;2.00;1.00
76049;PMS7003;64967;50.234;19.224;2023-02-28T01:15:35;1.00;1.00;0.33
76049;PMS7003;64967;50.234;19.224;2023-02-28T01:18:02;1.00;1.00;1.00
76049;PMS7003;64967;50.234;19.224;2023-02-28T01:20:29;4.00;2.00;2.00
76049;PMS7003;64967;50.234;19.224;2023-02-28T01:22:56;4.00;4.00;2.00
76049;PMS7003;64967;50.234;19.224;2023-02-28T01:25:24;2.67;2.00;1.33
76049;PMS7003;64967;50.234;19.224;2023-02-28T01:27:51;2.00;2.00;1.00
76049;PMS7003;64967;50.234;19.224;2023-02-28T01:30:18;2.00;2.00;1.00
76049;PMS7003;64967;50.234;19.224;2023-02-28T01:32:45;2.00;1.00;0.33
76049;PMS7003;64967;50.234;19.224;2023-02-28T01:35:12;1.00;1.00;1.00
76049;PMS7003;64967;50.234;19.224;2023-02-28T01:37:39;2.67;2.00;1.33
76049;PMS7003;64967;50.234;19.224;2023-02-28T01:40:06;2.67;2.00;1.00
76049;PMS7003;64967;50.234;19.224;2023-02-28T01:42:34;1.00;1.00;1.00
76049;PMS7003;64967;50.234;19.224;2023-02-28T01:45:06;4.00;2.00;1.33
76049;PMS7003;64967;50.234;19.224;2023-02-28T01:47:45;4.33;4.00;4.00
76049;PMS7003;64967;50.234;19.224;2023-02-28T01:50:18;4.00;4.00;2.00
76049;PMS7003;64967;50.234;19.224;2023-02-28T01:52:48;4.00;3.33;2.00
76049;PMS7003;64967;50.234;19.224;2023-02-28T01:55:18;18.00;14.67;11.00
76049;PMS7003;64967;50.234;19.224;2023-02-28T01:57:51;26.00;19.33;14.00
76049;PMS7003;64967;50.234;19.224;2023-02-28T02:00:25;17.67;14.00;10.00
76049;PMS7003;64967;50.234;19.224;2023-02-28T02:02:54;23.33;18.67;13.67
76049;PMS7003;64967;50.234;19.224;2023-02-28T02:05:26;25.67;17.67;14.00
76049;PMS7003;64967;50.234;19.224;2023-02-28T02:08:07;24.33;20.00;11.00
76049;PMS7003;64967;50.234;19.224;2023-02-28T02:10:49;18.33;15.33;10.67
76049;PMS7003;64967;50.234;19.224;2023-02-28T02:25:42;16.00;13.67;10.00
76049;PMS7003;64967;50.234;19.224;2023-02-28T02:31:38;16.67;13.00;10.67
76049;PMS7003;64967;50.234;19.224;2023-02-28T02:37:21;19.67;19.00;13.33
76049;PMS7003;64967;50.234;19.224;2023-02-28T02:45:29;23.00;16.67;13.00
76049;PMS7003;64967;50.234;19.224;2023-02-28T02:48:05;22.00;19.00;13.67
76049;PMS7003;64967;50.234;19.224;2023-02-28T02:50:49;32.67;28.00;19.00
76049;PMS7003;64967;50.234;19.224;2023-02-28T02:53:21;30.00;21.33;16.33
76049;PMS7003;64967;50.234;19.224;2023-02-28T02:55:56;25.33;18.67;13.00
76049;PMS7003;64967;50.234;19.224;2023-02-28T02:58:27;26.67;21.00;17.00
76049;PMS7003;64967;50.234;19.224;2023-02-28T03:00:59;24.67;22.33;16.00
76049;PMS7003;64967;50.234;19.224;2023-02-28T03:03:30;20.00;17.00;13.00
76049;PMS7003;64967;50.234;19.224;2023-02-28T03:06:00;19.67;17.00;13.00
76049;PMS7003;64967;50.234;19.224;2023-02-28T03:08:28;16.33;13.67;10.33
76049;PMS7003;64967;50.234;19.224;2023-02-28T03:11:00;14.33;14.00;11.00
76049;PMS7003;64967;50.234;19.224;2023-02-28T03:13:41;23.00;21.33;17.00
76049;PMS7003;64967;50.234;19.224;2023-02-28T03:16:22;30.67;24.33;16.67
76049;PMS7003;64967;50.234;19.224;2023-02-28T03:24:15;21.00;17.33;12.33
76049;PMS7003;64967;50.234;19.224;2023-02-28T03:26:54;21.00;16.67;15.00
76049;PMS7003;64967;50.234;19.224;2023-02-28T03:32:13;22.33;17.00;10.33
76049;PMS7003;64967;50.234;19.224;2023-02-28T03:35:07;20.67;18.33;13.67
76049;PMS7003;64967;50.234;19.224;2023-02-28T03:37:52;18.33;12.33;7.33
76049;PMS7003;64967;50.234;19.224;2023-02-28T03:40:23;22.67;18.33;13.00
76049;PMS7003;64967;50.234;19.224;2023-02-28T03:42:56;22.33;16.00;11.00
76049;PMS7003;64967;50.234;19.224;2023-02-28T03:45:29;20.00;19.00;13.00
76049;PMS7003;64967;50.234;19.224;2023-02-28T03:48:07;24.67;21.67;15.33
76049;PMS7003;64967;50.234;19.224;2023-02-28T03:50:40;21.67;16.67;10.67
76049;PMS7003;64967;50.234;19.224;2023-02-28T03:55:42;19.33;14.67;11.00
76049;PMS7003;64967;50.234;19.224;2023-02-28T04:00:49;7.67;7.00;6.00
76049;PMS7003;64967;50.234;19.224;2023-02-28T04:03:24;16.67;12.33;10.00
76049;PMS7003;64967;50.234;19.224;2023-02-28T04:05:54;17.67;17.67;13.67
76049;PMS7003;64967;50.234;19.224;2023-02-28T04:08:23;16.67;11.00;8.00
76049;PMS7003;64967;50.234;19.224;2023-02-28T04:10:56;17.33;10.67;9.00
76049;PMS7003;64967;50.234;19.224;2023-02-28T04:13:29;20.33;15.33;11.33
76049;PMS7003;64967;50.234;19.224;2023-02-28T04:15:56;11.00;8.00;5.00
76049;PMS7003;64967;50.234;19.224;2023-02-28T04:18:27;15.00;12.67;9.00
76049;PMS7003;64967;50.234;19.224;2023-02-28T04:20:54;16.67;16.00;11.67
76049;PMS7003;64967;50.234;19.224;2023-02-28T04:23:21;13.00;10.67;9.00
76049;PMS7003;64967;50.234;19.224;2023-02-28T04:25:48;10.00;8.00;8.00
76049;PMS7003;64967;50.234;19.224;2023-02-28T04:28:17;18.67;12.00;10.00
76049;PMS7003;64967;50.234;19.224;2023-02-28T04:30:44;18.33;16.67;12.67
76049;PMS7003;64967;50.234;19.224;2023-02-28T04:33:11;17.33;15.00;11.33
76049;PMS7003;64967;50.234;19.224;2023-02-28T04:35:38;16.00;14.67;11.00
76049;PMS7003;64967;50.234;19.224;2023-02-28T04:38:05;14.00;13.33;10.67
76049;PMS7003;64967;50.234;19.224;2023-02-28T04:40:32;17.67;16.00;10.00
76049;PMS7003;64967;50.234;19.224;2023-02-28T04:42:59;21.00;19.00;15.00
76049;PMS7003;64967;50.234;19.224;2023-02-28T04:45:26;23.33;19.00;13.00
76049;PMS7003;64967;50.234;19.224;2023-02-28T04:47:56;14.00;13.33;10.00
76049;PMS7003;64967;50.234;19.224;2023-02-28T04:50:23;13.00;12.00;10.00
76049;PMS7003;64967;50.234;19.224;2023-02-28T04:52:50;17.33;15.33;10.67
76049;PMS7003;64967;50.234;19.224;2023-02-28T04:55:17;20.33;18.00;13.67
76049;PMS7003;64967;50.234;19.224;2023-02-28T04:57:44;19.00;16.67;13.67
76049;PMS7003;64967;50.234;19.224;2023-02-28T05:00:11;28.33;22.67;15.33
76049;PMS7003;64967;50.234;19.224;2023-02-28T05:02:41;25.00;18.33;13.00
76049;PMS7003;64967;50.234;19.224;2023-02-28T05:05:08;24.00;18.33;12.67
76049;PMS7003;64967;50.234;19.224;2023-02-28T05:07:35;33.67;28.67;16.00
76049;PMS7003;64967;50.234;19.224;2023-02-28T05:10:02;25.00;22.00;16.00
76049;PMS7003;64967;50.234;19.224;2023-02-28T05:12:31;32.67;26.33;18.67
76049;PMS7003;64967;50.234;19.224;2023-02-28T05:14:58;38.33;31.00;22.00
76049;PMS7003;64967;50.234;19.224;2023-02-28T05:17:25;24.67;22.00;18.00
76049;PMS7003;64967;50.234;19.224;2023-02-28T05:19:52;27.33;23.33;18.00
76049;PMS7003;64967;50.234;19.224;2023-02-28T05:22:26;33.33;27.33;18.00
76049;PMS7003;64967;50.234;19.224;2023-02-28T05:24:53;33.33;25.00;16.00
76049;PMS7003;64967;50.234;19.224;2023-02-28T05:27:20;18.67;16.67;12.67
76049;PMS7003;64967;50.234;19.224;2023-02-28T05:29:47;41.00;27.33;18.00
76049;PMS7003;64967;50.234;19.224;2023-02-28T05:32:14;36.00;26.67;20.00
76049;PMS7003;64967;50.234;19.224;2023-02-28T05:34:41;46.25;37.00;23.75
76049;PMS7003;64967;50.234;19.224;2023-02-28T05:37:11;34.67;19.67;13.00
76049;PMS7003;64967;50.234;19.224;2023-02-28T05:39:39;40.00;27.00;18.00
76049;PMS7003;64967;50.234;19.224;2023-02-28T05:42:06;30.50;24.50;16.50
76049;PMS7003;64967;50.234;19.224;2023-02-28T05:44:33;32.67;25.00;16.67
76049;PMS7003;64967;50.234;19.224;2023-02-28T05:47:00;41.67;31.67;20.00
76049;PMS7003;64967;50.234;19.224;2023-02-28T05:49:27;38.33;28.00;17.33
76049;PMS7003;64967;50.234;19.224;2023-02-28T05:51:54;27.67;22.00;15.00
76049;PMS7003;64967;50.234;19.224;2023-02-28T05:54:21;30.33;25.67;21.67
76049;PMS7003;64967;50.234;19.224;2023-02-28T05:56:48;37.00;29.33;19.67
76049;PMS7003;64967;50.234;19.224;2023-02-28T05:59:15;38.75;30.25;21.75
76049;PMS7003;64967;50.234;19.224;2023-02-28T06:01:43;40.00;32.00;23.67
76049;PMS7003;64967;50.234;19.224;2023-02-28T06:04:15;34.00;27.00;19.00
76049;PMS7003;64967;50.234;19.224;2023-02-28T06:06:57;44.00;35.00;24.00
76049;PMS7003;64967;50.234;19.224;2023-02-28T06:09:24;40.00;34.00;24.00
76049;PMS7003;64967;50.234;19.224;2023-02-28T06:11:51;37.50;33.75;23.50
76049;PMS7003;64967;50.234;19.224;2023-02-28T06:14:19;48.00;40.50;29.25
76049;PMS7003;64967;50.234;19.224;2023-02-28T06:16:46;39.00;33.25;27.75
76049;PMS7003;64967;50.234;19.224;2023-02-28T06:19:14;47.75;42.50;27.75
76049;PMS7003;64967;50.234;19.224;2023-02-28T06:21:41;54.75;43.25;26.50
76049;PMS7003;64967;50.234;19.224;2023-02-28T06:24:09;48.75;40.50;27.50
76049;PMS7003;64967;50.234;19.224;2023-02-28T06:26:36;42.00;34.50;26.50
76049;PMS7003;64967;50.234;19.224;2023-02-28T06:29:03;47.50;39.50;28.00
76049;PMS7003;64967;50.234;19.224;2023-02-28T06:31:30;41.50;35.50;24.00
76049;PMS7003;64967;50.234;19.224;2023-02-28T06:33:58;41.50;30.50;21.50
76049;PMS7003;64967;50.234;19.224;2023-02-28T06:36:25;47.00;39.33;26.00
76049;PMS7003;64967;50.234;19.224;2023-02-28T06:38:51;48.00;39.00;25.25
76049;PMS7003;64967;50.234;19.224;2023-02-28T06:41:25;48.75;39.50;25.00
76049;PMS7003;64967;50.234;19.224;2023-02-28T06:43:53;56.50;44.25;30.75
76049;PMS7003;64967;50.234;19.224;2023-02-28T06:46:20;55.00;46.00;32.00
76049;PMS7003;64967;50.234;19.224;2023-02-28T06:48:48;50.50;41.75;26.00
76049;PMS7003;64967;50.234;19.224;2023-02-28T06:51:17;54.50;44.00;28.00
76049;PMS7003;64967;50.234;19.224;2023-02-28T06:53:50;52.50;39.25;25.75
76049;PMS7003;64967;50.234;19.224;2023-02-28T06:56:17;52.25;41.00;28.00
76049;PMS7003;64967;50.234;19.224;2023-02-28T06:58:47;50.75;43.50;29.00
76049;PMS7003;64967;50.234;19.224;2023-02-28T07:01:15;46.25;40.25;25.00
76049;PMS7003;64967;50.234;19.224;2023-02-28T07:03:42;53.75;45.00;31.50
76049;PMS7003;64967;50.234;19.224;2023-02-28T07:06:09;46.67;40.33;26.33
76049;PMS7003;64967;50.234;19.224;2023-02-28T07:08:36;43.75;36.00;23.00
76049;PMS7003;64967;50.234;19.224;2023-02-28T07:11:04;46.00;38.75;27.50
76049;PMS7003;64967;50.234;19.224;2023-02-28T07:13:31;45.67;31.33;25.67
76049;PMS7003;64967;50.234;19.224;2023-02-28T07:15:59;40.67;37.00;23.67
76049;PMS7003;64967;50.234;19.224;2023-02-28T07:18:27;39.00;29.00;18.33
76049;PMS7003;64967;50.234;19.224;2023-02-28T07:20:55;54.67;40.00;27.33
76049;PMS7003;64967;50.234;19.224;2023-02-28T07:23:22;52.00;41.33;27.00
76049;PMS7003;64967;50.234;19.224;2023-02-28T07:25:50;49.33;39.33;26.67
76049;PMS7003;64967;50.234;19.224;2023-02-28T07:28:17;46.00;35.00;21.67
76049;PMS7003;64967;50.234;19.224;2023-02-28T07:30:44;53.33;38.33;26.00
76049;PMS7003;64967;50.234;19.224;2023-02-28T07:33:11;42.00;34.67;24.00
76049;PMS7003;64967;50.234;19.224;2023-02-28T07:35:38;49.67;39.33;26.00
76049;PMS7003;64967;50.234;19.224;2023-02-28T07:38:05;34.67;29.33;20.33
76049;PMS7003;64967;50.234;19.224;2023-02-28T07:40:34;34.67;27.33;20.00
76049;PMS7003;64967;50.234;19.224;2023-02-28T07:43:04;42.00;35.33;24.00
76049;PMS7003;64967;50.234;19.224;2023-02-28T07:45:31;41.00;33.00;21.00
76049;PMS7003;64967;50.234;19.224;2023-02-28T07:48:00;43.00;35.67;24.00
76049;PMS7003;64967;50.234;19.224;2023-02-28T07:50:28;41.67;34.00;22.67
76049;PMS7003;64967;50.234;19.224;2023-02-28T07:52:57;45.67;36.33;24.00
76049;PMS7003;64967;50.234;19.224;2023-02-28T07:55:25;36.00;31.67;21.00
76049;PMS7003;64967;50.234;19.224;2023-02-28T07:57:52;40.33;35.67;22.67
76049;PMS7003;64967;50.234;19.224;2023-02-28T08:00:20;46.00;39.67;25.00
76049;PMS7003;64967;50.234;19.224;2023-02-28T08:02:48;38.00;33.67;24.00
76049;PMS7003;64967;50.234;19.224;2023-02-28T08:05:15;38.33;29.33;20.00
76049;PMS7003;64967;50.234;19.224;2023-02-28T08:07:42;48.33;38.00;25.67
76049;PMS7003;64967;50.234;19.224;2023-02-28T08:10:09;30.67;26.00;18.67
76049;PMS7003;64967;50.234;19.224;2023-02-28T08:12:36;28.00;24.33;20.00
76049;PMS7003;64967;50.234;19.224;2023-02-28T08:15:03;49.67;33.67;22.67
76049;PMS7003;64967;50.234;19.224;2023-02-28T08:17:31;32.67;29.33;18.67
76049;PMS7003;64967;50.234;19.224;2023-02-28T08:20:00;27.00;25.33;18.00
76049;PMS7003;64967;50.234;19.224;2023-02-28T08:22:27;37.00;33.67;24.67
76049;PMS7003;64967;50.234;19.224;2023-02-28T08:24:54;24.33;22.00;15.00
76049;PMS7003;64967;50.234;19.224;2023-02-28T08:27:21;45.00;30.33;18.67
76049;PMS7003;64967;50.234;19.224;2023-02-28T08:29:48;32.00;29.33;19.33
76049;PMS7003;64967;50.234;19.224;2023-02-28T08:32:15;32.00;25.33;18.67
76049;PMS7003;64967;50.234;19.224;2023-02-28T08:34:54;38.00;32.33;21.33
76049;PMS7003;64967;50.234;19.224;2023-02-28T08:37:22;26.00;24.00;18.00
76049;PMS7003;64967;50.234;19.224;2023-02-28T08:39:48;29.33;22.00;15.33
76049;PMS7003;64967;50.234;19.224;2023-02-28T08:42:15;44.67;31.67;25.00
76049;PMS7003;64967;50.234;19.224;2023-02-28T08:44:42;40.67;33.67;22.33
76049;PMS7003;64967;50.234;19.224;2023-02-28T08:47:09;35.67;31.00;19.33
76049;PMS7003;64967;50.234;19.224;2023-02-28T08:49:36;31.00;27.33;18.00
76049;PMS7003;64967;50.234;19.224;2023-02-28T08:52:04;38.00;32.33;20.00
76049;PMS7003;64967;50.234;19.224;2023-02-28T08:54:31;30.00;26.67;19.00
76049;PMS7003;64967;50.234;19.224;2023-02-28T08:56:59;21.33;19.00;13.33
76049;PMS7003;64967;50.234;19.224;2023-02-28T08:59:27;20.00;18.33;13.00
76049;PMS7003;64967;50.234;19.224;2023-02-28T09:01:55;36.00;28.00;17.33
76049;PMS7003;64967;50.234;19.224;2023-02-28T09:04:22;39.33;31.00;20.00
76049;PMS7003;64967;50.234;19.224;2023-02-28T09:06:50;33.33;28.00;20.00
76049;PMS7003;64967;50.234;19.224;2023-02-28T09:09:17;35.00;27.00;18.00
76049;PMS7003;64967;50.234;19.224;2023-02-28T09:11:44;29.67;21.67;9.33
76049;PMS7003;64967;50.234;19.224;2023-02-28T09:14:11;27.33;22.33;17.00
76049;PMS7003;64967;50.234;19.224;2023-02-28T09:16:38;28.33;22.33;16.33
76049;PMS7003;64967;50.234;19.224;2023-02-28T09:19:10;35.67;28.67;18.67
76049;PMS7003;64967;50.234;19.224;2023-02-28T09:21:38;26.00;22.33;16.00
76049;PMS7003;64967;50.234;19.224;2023-02-28T09:24:05;20.67;17.00;12.67
76049;PMS7003;64967;50.234;19.224;2023-02-28T09:26:32;29.67;25.00;18.33
76049;PMS7003;64967;50.234;19.224;2023-02-28T09:29:08;29.33;23.00;16.00
76049;PMS7003;64967;50.234;19.224;2023-02-28T09:31:35;23.67;20.33;14.67
76049;PMS7003;64967;50.234;19.224;2023-02-28T09:34:03;27.33;23.00;17.00
76049;PMS7003;64967;50.234;19.224;2023-02-28T09:36:30;31.67;26.67;16.67
76049;PMS7003;64967;50.234;19.224;2023-02-28T09:39:10;25.67;23.33;16.67
76049;PMS7003;64967;50.234;19.224;2023-02-28T09:41:40;36.33;29.67;20.33
76049;PMS7003;64967;50.234;19.224;2023-02-28T09:47:30;26.00;23.33;17.00
76049;PMS7003;64967;50.234;19.224;2023-02-28T09:50:28;20.67;20.00;16.00
76049;PMS7003;64967;50.234;19.224;2023-02-28T09:53:02;26.33;19.67;13.00
76049;PMS7003;64967;50.234;19.224;2023-02-28T09:55:50;32.67;28.33;17.33
76049;PMS7003;64967;50.234;19.224;2023-02-28T10:06:33;29.67;25.00;18.00
76049;PMS7003;64967;50.234;19.224;2023-02-28T10:09:10;19.33;18.00;16.67
76049;PMS7003;64967;50.234;19.224;2023-02-28T10:11:42;25.67;21.67;17.00
76049;PMS7003;64967;50.234;19.224;2023-02-28T10:14:14;30.00;23.67;17.00
76049;PMS7003;64967;50.234;19.224;2023-02-28T10:22:38;21.00;18.67;14.33
76049;PMS7003;64967;50.234;19.224;2023-02-28T10:25:19;23.75;22.00;15.00
76049;PMS7003;64967;50.234;19.224;2023-02-28T10:27:49;20.00;20.00;14.75
76049;PMS7003;64967;50.234;19.224;2023-02-28T10:30:20;16.75;15.50;11.00
76049;PMS7003;64967;50.234;19.224;2023-02-28T10:32:51;22.25;17.75;13.50
76049;PMS7003;64967;50.234;19.224;2023-02-28T10:35:23;28.00;22.50;15.00
76049;PMS7003;64967;50.234;19.224;2023-02-28T10:37:59;26.75;24.25;16.50
76049;PMS7003;64967;50.234;19.224;2023-02-28T10:40:36;38.25;28.00;18.00
76049;PMS7003;64967;50.234;19.224;2023-02-28T10:45:51;31.75;20.25;15.75
76049;PMS7003;64967;50.234;19.224;2023-02-28T10:56:23;27.67;25.67;17.33
76049;PMS7003;64967;50.234;19.224;2023-02-28T10:58:56;25.00;19.25;12.75
76049;PMS7003;64967;50.234;19.224;2023-02-28T11:01:41;26.00;24.75;17.50
76049;PMS7003;64967;50.234;19.224;2023-02-28T11:04:19;29.67;24.00;18.00
76049;PMS7003;64967;50.234;19.224;2023-02-28T11:06:58;31.00;22.75;13.75
76049;PMS7003;64967;50.234;19.224;2023-02-28T11:09:32;34.67;25.00;18.67
76049;PMS7003;64967;50.234;19.224;2023-02-28T11:12:05;27.33;24.67;19.00
76049;PMS7003;64967;50.234;19.224;2023-02-28T11:15:18;32.33;23.33;16.33
76049;PMS7003;64967;50.234;19.224;2023-02-28T11:17:31;27.00;23.00;15.00
76049;PMS7003;64967;50.234;19.224;2023-02-28T11:20:01;30.33;29.33;19.00
76049;PMS7003;64967;50.234;19.224;2023-02-28T11:22:35;24.25;18.75;14.25
76049;PMS7003;64967;50.234;19.224;2023-02-28T11:27:58;22.75;17.00;10.75
76049;PMS7003;64967;50.234;19.224;2023-02-28T11:30:37;19.50;17.00;10.50
76049;PMS7003;64967;50.234;19.224;2023-02-28T11:33:49;16.00;15.00;10.00
76049;PMS7003;64967;50.234;19.224;2023-02-28T11:36:00;18.50;15.50;9.25
76049;PMS7003;64967;50.234;19.224;2023-02-28T11:38:31;15.00;12.50;8.75
76049;PMS7003;64967;50.234;19.224;2023-02-28T11:41:09;23.75;18.50;14.75
76049;PMS7003;64967;50.234;19.224;2023-02-28T11:46:30;16.75;14.75;10.25
76049;PMS7003;64967;50.234;19.224;2023-02-28T11:49:12;27.75;24.25;18.50
76049;PMS7003;64967;50.234;19.224;2023-02-28T11:52:00;32.00;22.50;17.00
76049;PMS7003;64967;50.234;19.224;2023-02-28T12:00:07;23.00;22.50;17.00
76049;PMS7003;64967;50.234;19.224;2023-02-28T12:02:59;21.00;19.00;14.25
76049;PMS7003;64967;50.234;19.224;2023-02-28T12:05:40;21.50;19.75;14.75
76049;PMS7003;64967;50.234;19.224;2023-02-28T12:19:00;19.75;18.00;12.25
76049;PMS7003;64967;50.234;19.224;2023-02-28T12:27:00;17.00;17.00;12.00
76049;PMS7003;64967;50.234;19.224;2023-02-28T12:29:30;22.50;19.25;14.00
76049;PMS7003;64967;50.234;19.224;2023-02-28T12:32:16;23.75;22.00;14.00
76049;PMS7003;64967;50.234;19.224;2023-02-28T12:34:49;21.25;18.00;15.00
76049;PMS7003;64967;50.234;19.224;2023-02-28T12:37:40;22.75;18.50;14.00
76049;PMS7003;64967;50.234;19.224;2023-02-28T12:40:17;25.50;21.25;15.50
76049;PMS7003;64967;50.234;19.224;2023-02-28T12:42:50;21.00;17.00;11.50
76049;PMS7003;64967;50.234;19.224;2023-02-28T12:45:43;18.50;17.00;12.50
76049;PMS7003;64967;50.234;19.224;2023-02-28T12:48:17;21.75;18.00;12.25
76049;PMS7003;64967;50.234;19.224;2023-02-28T12:50:50;21.00;17.75;12.75
76049;PMS7003;64967;50.234;19.224;2023-02-28T12:53:36;26.00;19.75;12.25
76049;PMS7003;64967;50.234;19.224;2023-02-28T12:56:18;16.75;15.00;12.00
76049;PMS7003;64967;50.234;19.224;2023-02-28T12:58:50;22.25;18.75;13.00
76049;PMS7003;64967;50.234;19.224;2023-02-28T13:07:27;20.00;17.25;13.75
76049;PMS7003;64967;50.234;19.224;2023-02-28T13:10:02;13.50;10.00;7.00
76049;PMS7003;64967;50.234;19.224;2023-02-28T13:12:34;11.25;10.75;6.25
76049;PMS7003;64967;50.234;19.224;2023-02-28T13:15:16;21.00;19.00;15.00
76049;PMS7003;64967;50.234;19.224;2023-02-28T13:17:51;29.25;19.75;15.00
76049;PMS7003;64967;50.234;19.224;2023-02-28T13:20:23;20.75;18.75;11.50
76049;PMS7003;64967;50.234;19.224;2023-02-28T13:22:53;19.50;18.50;14.25
76049;PMS7003;64967;50.234;19.224;2023-02-28T13:27:54;20.50;17.25;12.25
76049;PMS7003;64967;50.234;19.224;2023-02-28T13:36:10;21.75;19.00;13.00
76049;PMS7003;64967;50.234;19.224;2023-02-28T13:54:50;17.25;13.75;9.75
76049;PMS7003;64967;50.234;19.224;2023-02-28T14:02:42;16.50;13.25;11.00
76049;PMS7003;64967;50.234;19.224;2023-02-28T14:05:23;20.00;17.50;12.75
76049;PMS7003;64967;50.234;19.224;2023-02-28T14:07:53;21.00;18.25;12.25
76049;PMS7003;64967;50.234;19.224;2023-02-28T14:10:37;15.25;13.00;10.00
76049;PMS7003;64967;50.234;19.224;2023-02-28T14:20:47;22.25;19.50;13.25
76049;PMS7003;64967;50.234;19.224;2023-02-28T14:31:37;14.00;11.75;10.00
76049;PMS7003;64967;50.234;19.224;2023-02-28T14:34:50;14.50;11.75;9.50
76049;PMS7003;64967;50.234;19.224;2023-02-28T14:37:30;16.50;15.25;11.00
76049;PMS7003;64967;50.234;19.224;2023-02-28T14:40:03;23.50;18.00;13.75
76049;PMS7003;64967;50.234;19.224;2023-02-28T14:42:38;20.25;16.75;13.50
76049;PMS7003;64967;50.234;19.224;2023-02-28T14:45:17;18.75;16.00;13.00
76049;PMS7003;64967;50.234;19.224;2023-02-28T14:47:48;18.25;14.75;11.00
76049;PMS7003;64967;50.234;19.224;2023-02-28T14:50:18;23.75;16.00;12.00
76049;PMS7003;64967;50.234;19.224;2023-02-28T14:52:51;24.75;19.00;14.25
76049;PMS7003;64967;50.234;19.224;2023-02-28T14:55:19;23.50;15.00;10.75
76049;PMS7003;64967;50.234;19.224;2023-02-28T14:57:56;20.50;19.50;15.00
76049;PMS7003;64967;50.234;19.224;2023-02-28T15:00:25;11.75;11.75;10.75
76049;PMS7003;64967;50.234;19.224;2023-02-28T15:02:53;18.75;18.00;13.25
76049;PMS7003;64967;50.234;19.224;2023-02-28T15:05:32;23.75;23.25;15.00
76049;PMS7003;64967;50.234;19.224;2023-02-28T15:08:14;31.75;27.00;18.75
76049;PMS7003;64967;50.234;19.224;2023-02-28T15:10:43;28.00;23.50;16.25
76049;PMS7003;64967;50.234;19.224;2023-02-28T15:13:12;51.33;43.67;30.33
76049;PMS7003;64967;50.234;19.224;2023-02-28T15:15:45;36.00;28.67;23.00
76049;PMS7003;64967;50.234;19.224;2023-02-28T15:21:11;53.67;40.33;25.33
76049;PMS7003;64967;50.234;19.224;2023-02-28T15:23:43;44.00;36.67;23.67
76049;PMS7003;64967;50.234;19.224;2023-02-28T15:26:19;34.33;29.67;19.67
76049;PMS7003;64967;50.234;19.224;2023-02-28T15:28:52;47.00;39.00;26.00
76049;PMS7003;64967;50.234;19.224;2023-02-28T15:31:29;60.00;46.67;31.00
76049;PMS7003;64967;50.234;19.224;2023-02-28T15:34:36;42.67;36.33;24.00
76049;PMS7003;64967;50.234;19.224;2023-02-28T15:40:15;42.00;36.67;24.67
76049;PMS7003;64967;50.234;19.224;2023-02-28T15:43:03;43.00;37.67;26.00
76049;PMS7003;64967;50.234;19.224;2023-02-28T15:45:46;38.00;32.00;22.67
76049;PMS7003;64967;50.234;19.224;2023-02-28T15:48:26;37.33;30.33;21.00
76049;PMS7003;64967;50.234;19.224;2023-02-28T15:50:58;27.00;23.00;15.00
76049;PMS7003;64967;50.234;19.224;2023-02-28T15:53:37;37.00;31.00;20.00
76049;PMS7003;64967;50.234;19.224;2023-02-28T15:56:28;42.33;32.33;20.00
76049;PMS7003;64967;50.234;19.224;2023-02-28T15:59:01;32.33;29.00;18.67
76049;PMS7003;64967;50.234;19.224;2023-02-28T16:01:33;30.67;25.33;17.00
76049;PMS7003;64967;50.234;19.224;2023-02-28T16:04:06;46.67;31.33;22.33
76049;PMS7003;64967;50.234;19.224;2023-02-28T16:07:00;38.67;32.67;22.33
76049;PMS7003;64967;50.234;19.224;2023-02-28T16:09:28;33.33;28.33;22.00
76049;PMS7003;64967;50.234;19.224;2023-02-28T16:12:01;41.67;30.00;21.67
76049;PMS7003;64967;50.234;19.224;2023-02-28T16:14:29;37.00;28.67;21.67
76049;PMS7003;64967;50.234;19.224;2023-02-28T16:17:02;36.00;34.33;26.00
76049;PMS7003;64967;50.234;19.224;2023-02-28T16:19:31;47.67;38.67;26.33
76049;PMS7003;64967;50.234;19.224;2023-02-28T16:22:00;44.33;40.00;28.33
76049;PMS7003;64967;50.234;19.224;2023-02-28T16:24:27;40.33;33.67;26.33
76049;PMS7003;64967;50.234;19.224;2023-02-28T16:26:54;44.33;39.67;26.33
76049;PMS7003;64967;50.234;19.224;2023-02-28T16:29:27;60.00;44.00;29.67
76049;PMS7003;64967;50.234;19.224;2023-02-28T16:32:01;71.67;53.00;32.00
76049;PMS7003;64967;50.234;19.224;2023-02-28T16:34:31;78.75;57.25;37.50